Terminal Aerodrome Forecast
Issued by NWS

Home | Current Version | Previous Version | Text Only | Print | Product List | Glossary Off
Versions: 1 2 3 4 5 6 7 8 9 10 11 12 13 14 15 16

855
FTUS43 KGRB 012338
TAFMTW
TAF
KMTW 012338Z 0200/0224 29008KT P6SM -DZ OVC040
      TEMPO 0200/0204 -RADZ BKN025
     FM021800 30009KT P6SM BKN025=

USA.gov is the U.S. government's official web portal to all federal, state and local government web resources and services.